sensor_id;sensor_type;location;lat;lon;timestamp;temperature;humidity
13482;DHT22;6813;60.352;15.746;2023-04-01T00:02:20;-3.70;84.20
13482;DHT22;6813;60.352;15.746;2023-04-01T00:04:45;-3.90;83.10
13482;DHT22;6813;60.352;15.746;2023-04-01T00:07:11;-3.90;84.60
13482;DHT22;6813;60.352;15.746;2023-04-01T00:09:37;-3.80;84.10
13482;DHT22;6813;60.352;15.746;2023-04-01T00:12:03;-3.90;83.90
13482;DHT22;6813;60.352;15.746;2023-04-01T00:14:29;-3.90;83.10
13482;DHT22;6813;60.352;15.746;2023-04-01T00:16:55;-3.90;83.10
13482;DHT22;6813;60.352;15.746;2023-04-01T00:19:21;-3.80;83.20
13482;DHT22;6813;60.352;15.746;2023-04-01T00:21:46;-3.60;83.40
13482;DHT22;6813;60.352;15.746;2023-04-01T00:24:13;-3.60;82.80
13482;DHT22;6813;60.352;15.746;2023-04-01T00:26:39;-3.50;83.40
13482;DHT22;6813;60.352;15.746;2023-04-01T00:29:06;-3.50;83.00
13482;DHT22;6813;60.352;15.746;2023-04-01T00:31:32;-3.40;82.70
13482;DHT22;6813;60.352;15.746;2023-04-01T00:33:58;-3.50;82.40
13482;DHT22;6813;60.352;15.746;2023-04-01T00:36:24;-3.40;82.20
13482;DHT22;6813;60.352;15.746;2023-04-01T00:38:50;-3.50;82.50
13482;DHT22;6813;60.352;15.746;2023-04-01T00:41:18;-3.60;82.10
13482;DHT22;6813;60.352;15.746;2023-04-01T00:43:46;-3.70;81.80
13482;DHT22;6813;60.352;15.746;2023-04-01T00:46:13;-4.00;82.20
13482;DHT22;6813;60.352;15.746;2023-04-01T00:48:42;-4.10;82.60
13482;DHT22;6813;60.352;15.746;2023-04-01T00:51:14;-4.30;82.70
13482;DHT22;6813;60.352;15.746;2023-04-01T00:53:45;-4.40;83.80
13482;DHT22;6813;60.352;15.746;2023-04-01T00:56:16;-4.40;84.30
13482;DHT22;6813;60.352;15.746;2023-04-01T00:58:47;-4.40;84.80
13482;DHT22;6813;60.352;15.746;2023-04-01T01:01:14;-4.60;84.70
13482;DHT22;6813;60.352;15.746;2023-04-01T01:03:40;-4.50;85.40
13482;DHT22;6813;60.352;15.746;2023-04-01T01:06:35;-4.40;85.50
13482;DHT22;6813;60.352;15.746;2023-04-01T01:11:50;-4.10;84.90
13482;DHT22;6813;60.352;15.746;2023-04-01T01:16:51;-4.00;84.70
13482;DHT22;6813;60.352;15.746;2023-04-01T01:28:19;-3.80;82.40
13482;DHT22;6813;60.352;15.746;2023-04-01T01:31:13;-3.90;82.40
13482;DHT22;6813;60.352;15.746;2023-04-01T01:34:02;-3.80;82.30
13482;DHT22;6813;60.352;15.746;2023-04-01T01:36:33;-3.80;82.30
13482;DHT22;6813;60.352;15.746;2023-04-01T01:39:04;-3.80;82.10
13482;DHT22;6813;60.352;15.746;2023-04-01T01:41:32;-3.80;81.80
13482;DHT22;6813;60.352;15.746;2023-04-01T01:44:03;-3.80;82.10
13482;DHT22;6813;60.352;15.746;2023-04-01T01:46:30;-3.70;82.40
13482;DHT22;6813;60.352;15.746;2023-04-01T01:48:57;-3.80;81.80
13482;DHT22;6813;60.352;15.746;2023-04-01T01:51:26;-3.90;81.60
13482;DHT22;6813;60.352;15.746;2023-04-01T01:53:53;-4.00;81.70
13482;DHT22;6813;60.352;15.746;2023-04-01T01:56:22;-4.10;82.10
13482;DHT22;6813;60.352;15.746;2023-04-01T01:58:55;-4.20;82.50
13482;DHT22;6813;60.352;15.746;2023-04-01T02:01:27;-4.30;82.70
13482;DHT22;6813;60.352;15.746;2023-04-01T02:03:53;-4.40;83.80
13482;DHT22;6813;60.352;15.746;2023-04-01T02:06:23;-4.50;84.10
13482;DHT22;6813;60.352;15.746;2023-04-01T02:08:56;-4.40;84.40
13482;DHT22;6813;60.352;15.746;2023-04-01T02:11:46;-4.60;84.40
13482;DHT22;6813;60.352;15.746;2023-04-01T02:14:43;-4.80;84.60
13482;DHT22;6813;60.352;15.746;2023-04-01T02:17:20;-4.70;85.60
13482;DHT22;6813;60.352;15.746;2023-04-01T02:19:54;-4.70;85.90
13482;DHT22;6813;60.352;15.746;2023-04-01T02:22:27;-4.80;85.50
13482;DHT22;6813;60.352;15.746;2023-04-01T02:24:56;-5.00;85.90
13482;DHT22;6813;60.352;15.746;2023-04-01T02:27:23;-4.90;86.40
13482;DHT22;6813;60.352;15.746;2023-04-01T02:29:50;-5.00;86.40
13482;DHT22;6813;60.352;15.746;2023-04-01T02:32:17;-4.70;87.20
13482;DHT22;6813;60.352;15.746;2023-04-01T02:34:44;-5.00;86.20
13482;DHT22;6813;60.352;15.746;2023-04-01T02:37:11;-4.90;86.90
13482;DHT22;6813;60.352;15.746;2023-04-01T02:39:37;-4.80;86.10
13482;DHT22;6813;60.352;15.746;2023-04-01T02:42:03;-4.70;85.70
13482;DHT22;6813;60.352;15.746;2023-04-01T02:44:29;-4.80;85.40
13482;DHT22;6813;60.352;15.746;2023-04-01T02:46:55;-4.60;86.10
13482;DHT22;6813;60.352;15.746;2023-04-01T02:49:20;-4.70;85.70
13482;DHT22;6813;60.352;15.746;2023-04-01T02:51:46;-4.70;85.60
13482;DHT22;6813;60.352;15.746;2023-04-01T02:54:12;-4.70;85.70
13482;DHT22;6813;60.352;15.746;2023-04-01T02:56:38;-4.60;85.10
13482;DHT22;6813;60.352;15.746;2023-04-01T02:59:04;-4.50;84.30
13482;DHT22;6813;60.352;15.746;2023-04-01T03:01:29;-4.40;84.00
13482;DHT22;6813;60.352;15.746;2023-04-01T03:03:55;-4.40;83.60
13482;DHT22;6813;60.352;15.746;2023-04-01T03:06:21;-4.40;83.40
13482;DHT22;6813;60.352;15.746;2023-04-01T03:08:47;-4.40;82.70
13482;DHT22;6813;60.352;15.746;2023-04-01T03:11:13;-4.40;82.70
13482;DHT22;6813;60.352;15.746;2023-04-01T03:13:39;-4.40;83.40
13482;DHT22;6813;60.352;15.746;2023-04-01T03:16:05;-4.40;82.80
13482;DHT22;6813;60.352;15.746;2023-04-01T03:18:30;-4.40;82.60
13482;DHT22;6813;60.352;15.746;2023-04-01T03:20:56;-4.40;82.60
13482;DHT22;6813;60.352;15.746;2023-04-01T03:23:22;-4.40;82.00
13482;DHT22;6813;60.352;15.746;2023-04-01T03:25:49;-4.30;81.20
13482;DHT22;6813;60.352;15.746;2023-04-01T03:28:15;-4.30;80.70
13482;DHT22;6813;60.352;15.746;2023-04-01T03:30:41;-4.30;80.40
13482;DHT22;6813;60.352;15.746;2023-04-01T03:33:06;-4.40;80.30
13482;DHT22;6813;60.352;15.746;2023-04-01T03:35:33;-4.40;80.10
13482;DHT22;6813;60.352;15.746;2023-04-01T03:38:01;-4.30;80.10
13482;DHT22;6813;60.352;15.746;2023-04-01T03:40:26;-4.30;81.30
13482;DHT22;6813;60.352;15.746;2023-04-01T03:42:52;-4.30;81.60
13482;DHT22;6813;60.352;15.746;2023-04-01T03:45:18;-4.30;82.00
13482;DHT22;6813;60.352;15.746;2023-04-01T03:47:44;-4.20;82.10
13482;DHT22;6813;60.352;15.746;2023-04-01T03:50:10;-4.20;82.20
13482;DHT22;6813;60.352;15.746;2023-04-01T03:52:36;-4.20;82.70
13482;DHT22;6813;60.352;15.746;2023-04-01T03:55:02;-4.20;82.80
13482;DHT22;6813;60.352;15.746;2023-04-01T03:57:30;-4.10;82.90
13482;DHT22;6813;60.352;15.746;2023-04-01T03:59:55;-4.20;82.20
13482;DHT22;6813;60.352;15.746;2023-04-01T04:02:21;-4.30;82.60
13482;DHT22;6813;60.352;15.746;2023-04-01T04:04:47;-4.30;82.60
13482;DHT22;6813;60.352;15.746;2023-04-01T04:07:12;-4.30;82.60
13482;DHT22;6813;60.352;15.746;2023-04-01T04:09:38;-4.30;82.70
13482;DHT22;6813;60.352;15.746;2023-04-01T04:12:04;-4.30;83.70
13482;DHT22;6813;60.352;15.746;2023-04-01T04:14:31;-4.30;83.80
13482;DHT22;6813;60.352;15.746;2023-04-01T04:16:57;-4.30;83.50
13482;DHT22;6813;60.352;15.746;2023-04-01T04:19:22;-4.30;82.70
13482;DHT22;6813;60.352;15.746;2023-04-01T04:21:48;-4.30;82.30
13482;DHT22;6813;60.352;15.746;2023-04-01T04:24:14;-4.40;82.50
13482;DHT22;6813;60.352;15.746;2023-04-01T04:26:39;-4.40;82.60
13482;DHT22;6813;60.352;15.746;2023-04-01T04:29:05;-4.40;82.60
13482;DHT22;6813;60.352;15.746;2023-04-01T04:31:31;-4.30;82.50
13482;DHT22;6813;60.352;15.746;2023-04-01T04:34:00;-4.30;82.70
13482;DHT22;6813;60.352;15.746;2023-04-01T04:36:28;-4.20;83.70
13482;DHT22;6813;60.352;15.746;2023-04-01T04:38:54;-4.20;83.60
13482;DHT22;6813;60.352;15.746;2023-04-01T04:41:23;-4.10;84.50
13482;DHT22;6813;60.352;15.746;2023-04-01T04:43:51;-4.00;84.10
13482;DHT22;6813;60.352;15.746;2023-04-01T04:46:17;-4.00;83.90
13482;DHT22;6813;60.352;15.746;2023-04-01T04:48:43;-3.90;84.00
13482;DHT22;6813;60.352;15.746;2023-04-01T04:51:13;-3.90;84.00
13482;DHT22;6813;60.352;15.746;2023-04-01T04:53:40;-3.80;85.20
13482;DHT22;6813;60.352;15.746;2023-04-01T04:56:06;-3.80;84.20
13482;DHT22;6813;60.352;15.746;2023-04-01T04:58:35;-3.70;84.50
13482;DHT22;6813;60.352;15.746;2023-04-01T05:01:15;-3.50;84.60
13482;DHT22;6813;60.352;15.746;2023-04-01T05:03:41;-3.40;84.70
13482;DHT22;6813;60.352;15.746;2023-04-01T05:06:08;-3.20;84.80
13482;DHT22;6813;60.352;15.746;2023-04-01T05:08:35;-3.10;83.90
13482;DHT22;6813;60.352;15.746;2023-04-01T05:11:02;-3.00;84.00
13482;DHT22;6813;60.352;15.746;2023-04-01T05:13:28;-2.90;84.10
13482;DHT22;6813;60.352;15.746;2023-04-01T05:15:54;-2.80;84.20
13482;DHT22;6813;60.352;15.746;2023-04-01T05:18:20;-2.70;84.30
13482;DHT22;6813;60.352;15.746;2023-04-01T05:20:50;-2.60;84.40
13482;DHT22;6813;60.352;15.746;2023-04-01T05:23:17;-2.50;84.50
13482;DHT22;6813;60.352;15.746;2023-04-01T05:25:43;-2.40;84.40
13482;DHT22;6813;60.352;15.746;2023-04-01T05:28:10;-2.30;83.50
13482;DHT22;6813;60.352;15.746;2023-04-01T05:30:36;-2.20;83.40
13482;DHT22;6813;60.352;15.746;2023-04-01T05:33:02;-2.00;83.40
13482;DHT22;6813;60.352;15.746;2023-04-01T05:35:27;-1.70;83.00
13482;DHT22;6813;60.352;15.746;2023-04-01T05:37:53;-1.40;82.70
13482;DHT22;6813;60.352;15.746;2023-04-01T05:40:19;-1.10;81.60
13482;DHT22;6813;60.352;15.746;2023-04-01T05:42:44;-0.80;79.30
13482;DHT22;6813;60.352;15.746;2023-04-01T05:45:10;-0.60;80.00
13482;DHT22;6813;60.352;15.746;2023-04-01T05:47:36;-0.40;79.00
13482;DHT22;6813;60.352;15.746;2023-04-01T05:50:01;-0.10;78.80
13482;DHT22;6813;60.352;15.746;2023-04-01T05:52:27;0.10;78.30
13482;DHT22;6813;60.352;15.746;2023-04-01T05:54:53;0.30;78.10
13482;DHT22;6813;60.352;15.746;2023-04-01T05:57:18;0.50;77.50
13482;DHT22;6813;60.352;15.746;2023-04-01T05:59:44;0.70;77.60
13482;DHT22;6813;60.352;15.746;2023-04-01T06:02:11;0.90;77.70
13482;DHT22;6813;60.352;15.746;2023-04-01T06:04:40;1.00;75.30
13482;DHT22;6813;60.352;15.746;2023-04-01T06:07:17;1.20;75.60
13482;DHT22;6813;60.352;15.746;2023-04-01T06:09:44;1.40;75.70
13482;DHT22;6813;60.352;15.746;2023-04-01T06:15:52;2.00;73.10
13482;DHT22;6813;60.352;15.746;2023-04-01T06:34:55;4.30;66.90
13482;DHT22;6813;60.352;15.746;2023-04-01T06:43:33;4.80;65.60
13482;DHT22;6813;60.352;15.746;2023-04-01T06:46:13;4.90;64.60
13482;DHT22;6813;60.352;15.746;2023-04-01T06:51:34;5.20;64.90
13482;DHT22;6813;60.352;15.746;2023-04-01T06:54:47;5.30;63.80
13482;DHT22;6813;60.352;15.746;2023-04-01T06:59:45;5.50;63.70
13482;DHT22;6813;60.352;15.746;2023-04-01T07:04:48;5.80;64.10
13482;DHT22;6813;60.352;15.746;2023-04-01T07:10:23;6.20;62.40
13482;DHT22;6813;60.352;15.746;2023-04-01T07:12:57;6.60;62.00
13482;DHT22;6813;60.352;15.746;2023-04-01T07:15:45;6.80;61.00
13482;DHT22;6813;60.352;15.746;2023-04-01T07:18:34;7.00;59.10
13482;DHT22;6813;60.352;15.746;2023-04-01T07:21:14;7.20;59.40
13482;DHT22;6813;60.352;15.746;2023-04-01T07:23:44;7.40;58.90
13482;DHT22;6813;60.352;15.746;2023-04-01T07:26:18;7.60;58.30
13482;DHT22;6813;60.352;15.746;2023-04-01T07:28:44;7.80;58.90
13482;DHT22;6813;60.352;15.746;2023-04-01T07:31:13;7.90;57.70
13482;DHT22;6813;60.352;15.746;2023-04-01T07:45:23;8.50;57.00
13482;DHT22;6813;60.352;15.746;2023-04-01T07:48:05;8.60;57.20
13482;DHT22;6813;60.352;15.746;2023-04-01T07:51:04;8.70;56.40
13482;DHT22;6813;60.352;15.746;2023-04-01T07:53:41;8.70;56.30
13482;DHT22;6813;60.352;15.746;2023-04-01T07:56:11;8.80;56.10
13482;DHT22;6813;60.352;15.746;2023-04-01T07:58:44;8.90;55.70
13482;DHT22;6813;60.352;15.746;2023-04-01T08:01:23;8.90;56.20
13482;DHT22;6813;60.352;15.746;2023-04-01T08:15:00;9.50;55.70
13482;DHT22;6813;60.352;15.746;2023-04-01T08:20:28;9.80;55.80
13482;DHT22;6813;60.352;15.746;2023-04-01T08:25:46;10.10;54.00
13482;DHT22;6813;60.352;15.746;2023-04-01T08:28:33;10.20;54.20
13482;DHT22;6813;60.352;15.746;2023-04-01T08:33:31;10.20;54.10
13482;DHT22;6813;60.352;15.746;2023-04-01T08:38:40;10.40;54.40
13482;DHT22;6813;60.352;15.746;2023-04-01T08:54:56;10.70;53.70
13482;DHT22;6813;60.352;15.746;2023-04-01T09:00:32;10.50;54.30
13482;DHT22;6813;60.352;15.746;2023-04-01T09:09:01;10.50;54.20
13482;DHT22;6813;60.352;15.746;2023-04-01T09:14:23;10.70;55.50
13482;DHT22;6813;60.352;15.746;2023-04-01T09:17:18;10.90;55.50
13482;DHT22;6813;60.352;15.746;2023-04-01T09:25:48;11.30;56.50
13482;DHT22;6813;60.352;15.746;2023-04-01T09:34:41;10.90;54.70
13482;DHT22;6813;60.352;15.746;2023-04-01T09:37:20;10.90;55.20
13482;DHT22;6813;60.352;15.746;2023-04-01T09:43:25;11.10;54.50
13482;DHT22;6813;60.352;15.746;2023-04-01T09:51:38;10.60;57.20
13482;DHT22;6813;60.352;15.746;2023-04-01T09:56:38;10.60;56.90
13482;DHT22;6813;60.352;15.746;2023-04-01T10:08:05;11.10;57.30
13482;DHT22;6813;60.352;15.746;2023-04-01T10:21:56;11.30;57.00
13482;DHT22;6813;60.352;15.746;2023-04-01T10:36:27;11.00;57.70
13482;DHT22;6813;60.352;15.746;2023-04-01T11:31:58;10.50;57.60
13482;DHT22;6813;60.352;15.746;2023-04-01T11:42:46;10.20;57.10
13482;DHT22;6813;60.352;15.746;2023-04-01T11:45:32;10.00;57.90
13482;DHT22;6813;60.352;15.746;2023-04-01T11:51:22;9.20;63.30
13482;DHT22;6813;60.352;15.746;2023-04-01T12:04:30;9.60;60.90
13482;DHT22;6813;60.352;15.746;2023-04-01T12:12:40;9.20;61.00
13482;DHT22;6813;60.352;15.746;2023-04-01T12:15:33;9.30;60.70
13482;DHT22;6813;60.352;15.746;2023-04-01T12:20:49;8.90;64.20
13482;DHT22;6813;60.352;15.746;2023-04-01T12:31:42;8.80;62.90
13482;DHT22;6813;60.352;15.746;2023-04-01T12:37:23;8.60;61.10
13482;DHT22;6813;60.352;15.746;2023-04-01T12:51:37;8.30;64.50
13482;DHT22;6813;60.352;15.746;2023-04-01T13:05:45;8.20;62.50
13482;DHT22;6813;60.352;15.746;2023-04-01T13:17:18;8.00;60.90
13482;DHT22;6813;60.352;15.746;2023-04-01T13:28:17;8.00;63.10
13482;DHT22;6813;60.352;15.746;2023-04-01T13:31:01;7.90;61.10
13482;DHT22;6813;60.352;15.746;2023-04-01T13:36:27;7.80;61.70
13482;DHT22;6813;60.352;15.746;2023-04-01T13:39:23;7.80;61.40
13482;DHT22;6813;60.352;15.746;2023-04-01T14:03:03;7.60;65.20
13482;DHT22;6813;60.352;15.746;2023-04-01T14:14:06;7.70;66.20
13482;DHT22;6813;60.352;15.746;2023-04-01T14:27:41;7.40;66.80
13482;DHT22;6813;60.352;15.746;2023-04-01T14:43:46;6.80;67.50
13482;DHT22;6813;60.352;15.746;2023-04-01T14:46:52;6.90;67.60
13482;DHT22;6813;60.352;15.746;2023-04-01T14:49:35;7.10;66.90
13482;DHT22;6813;60.352;15.746;2023-04-01T14:52:55;7.20;66.60
13482;DHT22;6813;60.352;15.746;2023-04-01T15:09:01;6.90;67.60
13482;DHT22;6813;60.352;15.746;2023-04-01T15:11:59;6.80;67.10
13482;DHT22;6813;60.352;15.746;2023-04-01T15:14:43;6.80;67.50
13482;DHT22;6813;60.352;15.746;2023-04-01T15:23:25;6.40;68.70
13482;DHT22;6813;60.352;15.746;2023-04-01T15:26:20;6.30;68.30
13482;DHT22;6813;60.352;15.746;2023-04-01T15:34:07;6.00;69.10
13482;DHT22;6813;60.352;15.746;2023-04-01T15:39:18;6.10;67.00
13482;DHT22;6813;60.352;15.746;2023-04-01T15:44:45;5.70;69.90
13482;DHT22;6813;60.352;15.746;2023-04-01T15:55:43;5.70;68.70
13482;DHT22;6813;60.352;15.746;2023-04-01T16:07:19;5.90;68.70
13482;DHT22;6813;60.352;15.746;2023-04-01T16:15:25;6.00;68.30
13482;DHT22;6813;60.352;15.746;2023-04-01T16:18:10;6.00;68.20
13482;DHT22;6813;60.352;15.746;2023-04-01T16:20:54;5.40;69.60
13482;DHT22;6813;60.352;15.746;2023-04-01T16:23:43;5.30;70.40
13482;DHT22;6813;60.352;15.746;2023-04-01T16:27:19;5.10;71.00
13482;DHT22;6813;60.352;15.746;2023-04-01T16:29:45;5.10;70.60
13482;DHT22;6813;60.352;15.746;2023-04-01T16:32:17;5.20;70.60
13482;DHT22;6813;60.352;15.746;2023-04-01T16:37:47;5.10;70.60
13482;DHT22;6813;60.352;15.746;2023-04-01T16:48:59;4.80;72.30
13482;DHT22;6813;60.352;15.746;2023-04-01T16:51:35;4.60;73.00
13482;DHT22;6813;60.352;15.746;2023-04-01T16:54:30;4.60;73.20
13482;DHT22;6813;60.352;15.746;2023-04-01T17:02:17;4.70;73.60
13482;DHT22;6813;60.352;15.746;2023-04-01T17:04:48;4.60;73.00
13482;DHT22;6813;60.352;15.746;2023-04-01T17:15:58;4.40;72.80
13482;DHT22;6813;60.352;15.746;2023-04-01T17:21:05;4.20;73.80
13482;DHT22;6813;60.352;15.746;2023-04-01T17:29:28;4.30;73.80
13482;DHT22;6813;60.352;15.746;2023-04-01T17:35:15;4.50;73.40
13482;DHT22;6813;60.352;15.746;2023-04-01T17:38:06;4.60;73.80
13482;DHT22;6813;60.352;15.746;2023-04-01T17:40:49;4.30;73.70
13482;DHT22;6813;60.352;15.746;2023-04-01T17:45:57;4.10;74.20
13482;DHT22;6813;60.352;15.746;2023-04-01T17:48:35;3.90;74.20
13482;DHT22;6813;60.352;15.746;2023-04-01T17:59:11;3.90;74.40
13482;DHT22;6813;60.352;15.746;2023-04-01T18:01:47;4.00;74.80
13482;DHT22;6813;60.352;15.746;2023-04-01T18:20:30;4.10;73.50
13482;DHT22;6813;60.352;15.746;2023-04-01T18:23:06;4.00;72.90
13482;DHT22;6813;60.352;15.746;2023-04-01T18:25:43;4.10;73.20
13482;DHT22;6813;60.352;15.746;2023-04-01T18:28:22;4.00;73.20
13482;DHT22;6813;60.352;15.746;2023-04-01T18:39:03;4.00;73.00
13482;DHT22;6813;60.352;15.746;2023-04-01T18:52:40;3.60;76.10
13482;DHT22;6813;60.352;15.746;2023-04-01T18:55:30;3.70;75.90
13482;DHT22;6813;60.352;15.746;2023-04-01T18:58:34;3.70;76.00
13482;DHT22;6813;60.352;15.746;2023-04-01T19:01:19;3.70;76.10
13482;DHT22;6813;60.352;15.746;2023-04-01T19:06:49;3.70;75.50
13482;DHT22;6813;60.352;15.746;2023-04-01T19:09:22;3.50;76.00
13482;DHT22;6813;60.352;15.746;2023-04-01T19:12:07;3.40;76.70
13482;DHT22;6813;60.352;15.746;2023-04-01T19:31:52;2.30;81.30
13482;DHT22;6813;60.352;15.746;2023-04-01T19:40:53;2.40;81.00
13482;DHT22;6813;60.352;15.746;2023-04-01T20:04:51;1.40;85.50
13482;DHT22;6813;60.352;15.746;2023-04-01T20:07:24;1.30;86.10
13482;DHT22;6813;60.352;15.746;2023-04-01T20:10:07;1.20;86.80
13482;DHT22;6813;60.352;15.746;2023-04-01T20:17:58;1.10;88.00
13482;DHT22;6813;60.352;15.746;2023-04-01T20:20:27;1.10;88.10
13482;DHT22;6813;60.352;15.746;2023-04-01T20:25:57;1.30;89.70
13482;DHT22;6813;60.352;15.746;2023-04-01T20:28:45;1.30;88.40
13482;DHT22;6813;60.352;15.746;2023-04-01T20:31:20;1.20;88.20
13482;DHT22;6813;60.352;15.746;2023-04-01T20:34:15;1.20;88.20
13482;DHT22;6813;60.352;15.746;2023-04-01T20:41:55;0.90;89.50
13482;DHT22;6813;60.352;15.746;2023-04-01T20:44:39;0.90;90.10
13482;DHT22;6813;60.352;15.746;2023-04-01T20:50:29;0.70;90.20
13482;DHT22;6813;60.352;15.746;2023-04-01T20:53:16;0.80;90.60
13482;DHT22;6813;60.352;15.746;2023-04-01T21:04:17;0.40;90.90
13482;DHT22;6813;60.352;15.746;2023-04-01T21:17:22;0.10;91.60
13482;DHT22;6813;60.352;15.746;2023-04-01T21:25:17;-0.10;92.10
13482;DHT22;6813;60.352;15.746;2023-04-01T21:32:47;-0.20;92.30
13482;DHT22;6813;60.352;15.746;2023-04-01T21:40:58;-0.10;92.30
13482;DHT22;6813;60.352;15.746;2023-04-01T21:43:57;-0.10;92.30
13482;DHT22;6813;60.352;15.746;2023-04-01T21:52:07;0.10;92.10
13482;DHT22;6813;60.352;15.746;2023-04-01T22:00:31;0.10;91.90
13482;DHT22;6813;60.352;15.746;2023-04-01T22:14:09;0.10;91.70
13482;DHT22;6813;60.352;15.746;2023-04-01T22:22:04;0.10;91.60
13482;DHT22;6813;60.352;15.746;2023-04-01T22:27:17;0.20;91.60
13482;DHT22;6813;60.352;15.746;2023-04-01T22:30:13;0.10;91.50
13482;DHT22;6813;60.352;15.746;2023-04-01T22:33:05;0.10;91.50
13482;DHT22;6813;60.352;15.746;2023-04-01T22:43:57;-0.20;91.90
13482;DHT22;6813;60.352;15.746;2023-04-01T22:49:47;-0.40;91.80
13482;DHT22;6813;60.352;15.746;2023-04-01T22:52:45;-0.50;92.00
13482;DHT22;6813;60.352;15.746;2023-04-01T22:55:16;-0.50;92.20
13482;DHT22;6813;60.352;15.746;2023-04-01T22:57:49;-0.50;92.30
13482;DHT22;6813;60.352;15.746;2023-04-01T23:00:49;-0.60;92.20
13482;DHT22;6813;60.352;15.746;2023-04-01T23:03:29;-0.80;92.40
13482;DHT22;6813;60.352;15.746;2023-04-01T23:05:59;-0.70;92.80
13482;DHT22;6813;60.352;15.746;2023-04-01T23:11:23;-0.80;92.60
13482;DHT22;6813;60.352;15.746;2023-04-01T23:16:40;-0.90;92.60
13482;DHT22;6813;60.352;15.746;2023-04-01T23:22:05;-1.10;92.90
13482;DHT22;6813;60.352;15.746;2023-04-01T23:27:36;-1.20;93.10
13482;DHT22;6813;60.352;15.746;2023-04-01T23:30:11;-1.20;93.30
13482;DHT22;6813;60.352;15.746;2023-04-01T23:32:50;-1.20;93.30
13482;DHT22;6813;60.352;15.746;2023-04-01T23:35:16;-1.40;93.20
13482;DHT22;6813;60.352;15.746;2023-04-01T23:37:42;-1.50;93.40
13482;DHT22;6813;60.352;15.746;2023-04-01T23:40:12;-1.50;93.60
13482;DHT22;6813;60.352;15.746;2023-04-01T23:42:40;-1.50;94.00
13482;DHT22;6813;60.352;15.746;2023-04-01T23:45:15;-1.40;93.60
13482;DHT22;6813;60.352;15.746;2023-04-01T23:47:43;-1.40;93.60
13482;DHT22;6813;60.352;15.746;2023-04-01T23:50:22;-1.40;93.60
13482;DHT22;6813;60.352;15.746;2023-04-01T23:53:02;-1.40;93.30
13482;DHT22;6813;60.352;15.746;2023-04-01T23:55:32;-1.50;93.40
